Time;durP1;ratioP1;P1;durP2;ratioP2;P2;SDS_P1;SDS_P2;PMS_P1;PMS_P2;Temp;Humidity;BMP_temperature;BMP_pressure;BME280_temperature;BME280_humidity;BME280_pressure;Samples;Min_cycle;Max_cycle;Signal;HPM_P1;HPM_P2
2021/07/15 00:00:15;;;;;;;1.85;0.28;;;19.20;99.90;;;;;;5074461;28;20396;-61
2021/07/15 00:02:42;;;;;;;0.50;0.35;;;19.10;99.90;;;;;;5074415;28;20211;-62
2021/07/15 00:05:11;;;;;;;0.40;0.30;;;19.00;99.90;;;;;;5073704;28;20216;-62
2021/07/15 00:07:38;;;;;;;0.30;0.30;;;18.90;99.90;;;;;;5073553;28;20334;-62
2021/07/15 00:10:15;;;;;;;0.60;0.30;;;18.90;99.90;;;;;;5073936;28;20205;-62
2021/07/15 00:12:43;;;;;;;0.10;0.08;;;18.90;99.90;;;;;;5073584;28;20406;-62
2021/07/15 00:15:12;;;;;;;2.83;0.30;;;18.90;99.90;;;;;;5073401;28;20771;-62
2021/07/15 00:17:39;;;;;;;0.88;0.40;;;18.90;99.90;;;;;;5073523;28;20209;-62
2021/07/15 00:20:10;;;;;;;1.50;0.30;;;18.90;99.90;;;;;;5073325;28;20730;-61
2021/07/15 00:22:37;;;;;;;0.38;0.30;;;18.80;99.90;;;;;;5073669;28;20242;-62
2021/07/15 00:25:09;;;;;;;0.55;0.35;;;18.80;99.90;;;;;;5073327;28;20205;-62
2021/07/15 00:27:36;;;;;;;2.35;0.40;;;18.70;99.90;;;;;;5074787;28;20209;-62
2021/07/15 00:30:03;;;;;;;0.55;0.47;;;18.60;99.90;;;;;;5074853;28;20587;-62
2021/07/15 00:32:30;;;;;;;0.70;0.68;;;18.70;99.90;;;;;;5073017;28;20247;-62
2021/07/15 00:34:56;;;;;;;1.08;0.52;;;18.60;99.90;;;;;;5073150;28;20209;-61
2021/07/15 00:37:23;;;;;;;0.40;0.20;;;18.60;99.90;;;;;;5072932;28;20664;-61
2021/07/15 00:39:50;;;;;;;0.15;0.15;;;18.40;99.90;;;;;;5072951;28;20209;-62
2021/07/15 00:42:18;;;;;;;0.20;0.20;;;18.40;99.90;;;;;;5073066;28;20608;-62
2021/07/15 00:44:45;;;;;;;0.55;0.22;;;18.20;99.90;;;;;;5071774;28;20227;-62
2021/07/15 00:47:12;;;;;;;0.20;0.20;;;18.20;99.90;;;;;;5072659;28;20767;-62
2021/07/15 00:49:39;;;;;;;0.68;0.40;;;18.20;99.90;;;;;;5072854;28;20209;-61
2021/07/15 00:52:11;;;;;;;2.40;0.50;;;18.10;99.90;;;;;;5072594;28;20213;-61
2021/07/15 00:54:39;;;;;;;2.28;0.45;;;18.10;99.90;;;;;;5072734;28;20201;-62
2021/07/15 00:57:06;;;;;;;1.27;0.25;;;18.10;99.90;;;;;;5072507;28;20233;-62
2021/07/15 00:59:34;;;;;;;1.38;0.70;;;18.10;99.90;;;;;;5072498;28;20209;-62
2021/07/15 01:02:01;;;;;;;1.50;0.77;;;18.10;99.90;;;;;;5072814;28;20672;-62
2021/07/15 01:04:28;;;;;;;1.38;1.20;;;18.10;99.90;;;;;;5072332;28;20225;-62
2021/07/15 01:06:55;;;;;;;1.42;0.60;;;18.20;99.90;;;;;;5072377;28;20229;-62
2021/07/15 01:09:23;;;;;;;0.77;0.70;;;18.20;99.90;;;;;;5072473;28;20201;-62
2021/07/15 01:11:58;;;;;;;1.77;0.60;;;18.20;99.90;;;;;;5072612;28;20560;-62
2021/07/15 01:14:39;;;;;;;0.40;0.38;;;18.20;99.90;;;;;;5072639;28;20204;-62
2021/07/15 01:17:11;;;;;;;1.20;0.40;;;18.20;99.90;;;;;;5072587;28;20286;-62
2021/07/15 01:20:20;;;;;;;0.30;0.30;;;18.20;99.90;;;;;;5072747;28;20209;-62
2021/07/15 01:22:57;;;;;;;0.20;0.20;;;18.20;99.90;;;;;;5072114;28;20702;-62
2021/07/15 01:25:54;;;;;;;0.88;0.20;;;18.20;99.90;;;;;;5072248;28;20274;-62
2021/07/15 01:28:26;;;;;;;1.13;0.40;;;18.20;99.90;;;;;;5072088;28;20250;-62
2021/07/15 01:30:59;;;;;;;1.00;0.70;;;18.20;99.90;;;;;;5072228;28;20296;-62
2021/07/15 01:33:29;;;;;;;0.70;0.57;;;18.10;99.90;;;;;;5072259;28;20201;-62
2021/07/15 01:35:59;;;;;;;1.55;0.40;;;18.10;99.90;;;;;;5072145;28;20229;-62
2021/07/15 01:38:29;;;;;;;0.50;0.40;;;18.00;99.90;;;;;;5071920;28;20258;-61
2021/07/15 01:41:01;;;;;;;2.10;0.50;;;17.90;99.90;;;;;;5071929;28;20265;-61
2021/07/15 01:43:31;;;;;;;1.92;0.57;;;17.90;99.90;;;;;;5071787;28;20231;-62
2021/07/15 01:45:59;;;;;;;0.30;0.30;;;17.90;99.90;;;;;;5071815;28;20232;-62
2021/07/15 01:48:26;;;;;;;0.50;0.35;;;17.90;99.90;;;;;;5071604;28;20208;-62
2021/07/15 01:50:53;;;;;;;0.45;0.30;;;17.90;99.90;;;;;;5071623;28;20212;-62
2021/07/15 01:53:20;;;;;;;0.20;0.20;;;17.90;99.90;;;;;;5071540;28;20209;-61
2021/07/15 01:55:48;;;;;;;3.13;0.30;;;17.90;99.90;;;;;;5071646;28;20736;-62
2021/07/15 01:58:15;;;;;;;1.48;0.30;;;17.80;99.90;;;;;;5072045;28;20205;-61
2021/07/15 02:00:44;;;;;;;0.55;0.20;;;17.90;99.90;;;;;;5071525;28;20205;-62
2021/07/15 02:03:14;;;;;;;0.95;0.10;;;17.90;99.90;;;;;;5071829;28;20205;-61
2021/07/15 02:05:43;;;;;;;1.65;0.10;;;17.80;99.90;;;;;;5071346;28;20232;-61
2021/07/15 02:08:10;;;;;;;3.05;0.30;;;17.80;99.90;;;;;;5071282;28;20287;-61
2021/07/15 02:10:38;;;;;;;3.30;0.35;;;17.80;99.90;;;;;;5071671;28;20208;-61
2021/07/15 02:13:08;;;;;;;0.47;0.05;;;17.90;99.90;;;;;;5071408;28;20204;-62
2021/07/15 02:15:36;;;;;;;0.17;0.10;;;17.90;99.90;;;;;;5070950;28;20733;-61
2021/07/15 02:18:03;;;;;;;0.15;0.15;;;17.90;99.90;;;;;;5071251;28;20218;-61
2021/07/15 02:20:32;;;;;;;1.52;0.35;;;17.90;99.90;;;;;;5071237;28;20247;-62
2021/07/15 02:23:00;;;;;;;1.67;0.13;;;17.90;99.90;;;;;;5071610;28;20200;-62
2021/07/15 02:25:28;;;;;;;0.95;0.43;;;17.90;99.90;;;;;;5071306;28;20236;-62
2021/07/15 02:27:57;;;;;;;0.10;0.10;;;17.80;99.90;;;;;;5071449;28;20588;-61
2021/07/15 02:30:24;;;;;;;0.25;0.10;;;17.80;99.90;;;;;;5071561;28;20209;-61
2021/07/15 02:32:56;;;;;;;0.40;0.20;;;17.80;99.90;;;;;;5071294;28;20212;-61
2021/07/15 02:35:25;;;;;;;0.68;0.22;;;17.90;99.90;;;;;;5070920;28;20630;-61
2021/07/15 02:37:58;;;;;;;0.22;0.20;;;17.90;99.90;;;;;;5071163;28;20231;-61
2021/07/15 02:40:25;;;;;;;3.83;1.13;;;18.00;99.90;;;;;;5071579;28;20221;-62
2021/07/15 02:42:52;;;;;;;0.10;0.10;;;18.00;99.90;;;;;;5070930;28;20750;-62
2021/07/15 02:45:21;;;;;;;3.03;0.40;;;17.90;99.90;;;;;;5070653;28;20225;-62
2021/07/15 02:47:49;;;;;;;0.83;0.10;;;17.90;99.90;;;;;;5070984;28;20213;-61
2021/07/15 02:50:19;;;;;;;0.73;0.10;;;18.00;99.90;;;;;;5071114;28;20292;-61
2021/07/15 02:52:48;;;;;;;1.10;0.70;;;17.90;99.90;;;;;;5071138;28;20212;-61
2021/07/15 02:55:16;;;;;;;1.65;0.70;;;18.00;99.90;;;;;;5070646;28;20205;-62
2021/07/15 02:57:55;;;;;;;1.13;0.20;;;18.00;99.90;;;;;;5070622;28;20715;-61
2021/07/15 03:00:23;;;;;;;0.55;0.20;;;18.00;99.90;;;;;;5070720;28;20212;-62
2021/07/15 03:02:57;;;;;;;1.15;0.45;;;18.10;99.90;;;;;;5070954;28;20213;-61
2021/07/15 03:05:26;;;;;;;1.85;0.30;;;18.10;99.90;;;;;;5070531;28;20322;-61
2021/07/15 03:07:57;;;;;;;0.55;0.15;;;18.20;99.90;;;;;;5073915;28;20243;-61
2021/07/15 03:10:27;;;;;;;0.10;0.10;;;18.10;99.90;;;;;;5074554;28;20673;-62
2021/07/15 03:12:56;;;;;;;0.17;0.15;;;18.20;99.90;;;;;;5074596;28;20615;-61
2021/07/15 03:15:23;;;;;;;1.08;0.45;;;18.20;99.90;;;;;;5074553;28;20246;-61
2021/07/15 03:17:52;;;;;;;1.65;0.38;;;18.10;99.90;;;;;;5074585;28;20668;-61
2021/07/15 03:20:24;;;;;;;0.85;0.40;;;18.10;99.90;;;;;;5074967;28;20205;-62
2021/07/15 03:22:55;;;;;;;0.20;0.10;;;18.10;99.90;;;;;;5074863;28;20213;-62
2021/07/15 03:25:22;;;;;;;0.20;0.20;;;18.20;99.90;;;;;;5074161;28;20220;-61
2021/07/15 03:27:52;;;;;;;2.05;0.77;;;18.20;99.90;;;;;;5075076;28;20204;-61
2021/07/15 03:30:20;;;;;;;4.30;3.00;;;18.20;99.90;;;;;;5074490;28;20266;-61
2021/07/15 03:32:50;;;;;;;0.32;0.30;;;18.20;99.90;;;;;;5074658;28;20390;-61
2021/07/15 03:35:18;;;;;;;0.50;0.40;;;18.10;99.90;;;;;;5074421;28;20205;-61
2021/07/15 03:37:47;;;;;;;0.43;0.28;;;18.10;99.90;;;;;;5074666;28;20204;-61
2021/07/15 03:40:16;;;;;;;0.22;0.10;;;18.00;99.90;;;;;;5074173;28;20208;-61
2021/07/15 03:42:44;;;;;;;0.47;0.20;;;18.00;99.90;;;;;;5074468;28;20270;-61
2021/07/15 03:45:15;;;;;;;0.15;0.10;;;18.00;99.90;;;;;;5074138;28;20231;-61
2021/07/15 03:47:43;;;;;;;0.43;0.17;;;18.00;99.90;;;;;;5074366;28;20589;-60
2021/07/15 03:50:11;;;;;;;0.88;0.20;;;18.10;99.90;;;;;;5074252;28;20209;-61
2021/07/15 03:52:40;;;;;;;3.72;0.20;;;18.00;99.90;;;;;;5074251;28;20215;-61
2021/07/15 03:55:08;;;;;;;0.22;0.10;;;18.10;99.90;;;;;;5074032;28;20673;-60
2021/07/15 03:57:36;;;;;;;0.40;0.25;;;18.10;99.90;;;;;;5073818;28;20514;-61
2021/07/15 04:00:05;;;;;;;0.77;0.40;;;18.10;99.90;;;;;;5074027;28;20270;-61
2021/07/15 04:02:37;;;;;;;3.00;0.45;;;18.20;99.90;;;;;;5073737;28;20232;-61
2021/07/15 04:05:05;;;;;;;0.47;0.40;;;18.10;99.90;;;;;;5073708;28;20216;-61
2021/07/15 04:07:34;;;;;;;0.82;0.30;;;18.20;99.90;;;;;;5074044;28;20225;-61
2021/07/15 04:10:02;;;;;;;0.95;0.05;;;18.20;99.90;;;;;;5073910;28;20623;-60
2021/07/15 04:12:32;;;;;;;1.85;0.20;;;18.20;99.90;;;;;;5073857;28;20216;-60
2021/07/15 04:15:08;;;;;;;0.57;0.20;;;18.00;99.90;;;;;;5074025;28;20201;-60
2021/07/15 04:17:39;;;;;;;1.70;0.33;;;18.00;99.90;;;;;;5073551;28;20263;-62
2021/07/15 04:20:10;;;;;;;2.83;0.17;;;18.00;99.90;;;;;;5073144;28;20599;-60
2021/07/15 04:22:39;;;;;;;0.17;0.10;;;18.00;99.90;;;;;;5073866;28;20216;-61
2021/07/15 04:25:09;;;;;;;1.08;0.20;;;18.00;99.90;;;;;;5073407;28;20220;-61
2021/07/15 04:27:38;;;;;;;2.15;0.17;;;17.90;99.90;;;;;;5073565;28;20651;-61
2021/07/15 04:30:07;;;;;;;0.35;0.10;;;18.00;99.90;;;;;;5073405;28;20209;-62
2021/07/15 04:32:39;;;;;;;2.43;0.20;;;18.10;99.90;;;;;;5073314;28;20239;-62
2021/07/15 04:35:08;;;;;;;0.57;0.20;;;18.20;99.90;;;;;;5073427;28;20296;-62
2021/07/15 04:37:38;;;;;;;0.45;0.20;;;18.30;99.90;;;;;;5073227;28;20341;-62
2021/07/15 04:40:07;;;;;;;0.90;0.45;;;18.30;99.90;;;;;;5073264;28;20743;-62
2021/07/15 04:42:34;;;;;;;0.25;0.20;;;18.30;99.90;;;;;;5073199;28;20388;-61
2021/07/15 04:45:02;;;;;;;1.05;0.80;;;18.30;99.90;;;;;;5073176;28;20313;-61
2021/07/15 04:47:31;;;;;;;1.35;0.60;;;18.40;99.90;;;;;;5072593;28;20334;-62
2021/07/15 04:49:59;;;;;;;2.05;1.60;;;18.60;99.90;;;;;;5072926;28;20201;-60
2021/07/15 04:52:27;;;;;;;0.30;0.30;;;18.80;99.90;;;;;;5072898;28;20209;-61
2021/07/15 04:54:55;;;;;;;1.02;0.80;;;18.90;99.90;;;;;;5072639;28;20204;-61
2021/07/15 04:57:23;;;;;;;2.45;0.98;;;19.00;99.90;;;;;;5073032;28;20732;-62
2021/07/15 04:59:49;;;;;;;1.95;0.40;;;19.10;99.90;;;;;;5073168;28;20208;-61
2021/07/15 05:02:16;;;;;;;3.15;1.80;;;19.20;99.90;;;;;;5073624;28;20216;-61
2021/07/15 05:04:43;;;;;;;3.50;2.00;;;19.30;99.90;;;;;;5073142;28;20251;-62
2021/07/15 05:07:11;;;;;;;4.97;1.85;;;19.30;99.90;;;;;;5072902;28;20307;-62
2021/07/15 05:09:37;;;;;;;1.80;0.60;;;19.40;99.90;;;;;;5072673;28;20208;-62
2021/07/15 05:12:05;;;;;;;3.58;1.60;;;19.50;99.90;;;;;;5072722;28;20209;-61
2021/07/15 05:14:40;;;;;;;1.50;0.60;;;19.50;99.90;;;;;;5072532;28;20201;-63
2021/07/15 05:17:07;;;;;;;1.98;1.13;;;19.50;99.90;;;;;;5072597;28;20309;-61
2021/07/15 05:19:34;;;;;;;2.88;2.00;;;19.50;99.90;;;;;;5072612;28;20579;-61
2021/07/15 05:22:01;;;;;;;2.50;1.55;;;19.50;99.90;;;;;;5072708;28;20204;-61
2021/07/15 05:24:29;;;;;;;0.52;0.50;;;19.50;99.90;;;;;;5072451;28;20213;-61
2021/07/15 05:26:55;;;;;;;0.73;0.40;;;19.50;99.90;;;;;;5072246;28;20241;-61
2021/07/15 05:29:22;;;;;;;5.03;1.70;;;19.50;99.90;;;;;;5072401;28;20294;-61
2021/07/15 05:31:49;;;;;;;3.60;2.20;;;19.50;99.90;;;;;;5072920;28;20212;-61
2021/07/15 05:34:17;;;;;;;0.28;0.28;;;19.60;99.90;;;;;;5072043;28;20205;-62
2021/07/15 05:36:44;;;;;;;2.45;1.05;;;19.70;99.90;;;;;;5072244;28;20302;-62
2021/07/15 05:39:11;;;;;;;4.53;2.83;;;19.80;99.90;;;;;;5072237;28;20200;-60
2021/07/15 05:41:39;;;;;;;6.55;3.58;;;19.90;99.90;;;;;;5072928;28;20209;-61
2021/07/15 05:44:07;;;;;;;12.07;7.85;;;19.90;99.90;;;;;;5072494;28;20209;-61
2021/07/15 05:46:33;;;;;;;2.63;1.55;;;19.90;99.90;;;;;;5072327;28;20239;-61
2021/07/15 05:49:00;;;;;;;2.90;1.20;;;20.00;99.90;;;;;;5072092;28;20685;-61
2021/07/15 05:51:27;;;;;;;1.98;1.20;;;20.00;99.90;;;;;;5072701;28;20664;-61
2021/07/15 05:53:53;;;;;;;4.82;3.88;;;20.00;99.90;;;;;;5072508;28;20213;-61
2021/07/15 05:56:20;;;;;;;2.58;0.70;;;20.00;99.90;;;;;;5072487;28;20312;-61
2021/07/15 05:58:48;;;;;;;2.50;0.65;;;19.90;99.90;;;;;;5072778;28;20227;-61
2021/07/15 06:01:15;;;;;;;1.15;0.68;;;19.90;99.90;;;;;;5072106;28;20205;-61
2021/07/15 06:03:41;;;;;;;0.98;0.30;;;20.00;99.90;;;;;;5071677;28;20208;-61
2021/07/15 06:06:08;;;;;;;2.50;0.40;;;20.00;99.90;;;;;;5072193;28;20256;-61
2021/07/15 06:08:35;;;;;;;0.90;0.40;;;20.00;99.90;;;;;;5072034;28;20258;-61
2021/07/15 06:11:01;;;;;;;1.65;0.30;;;19.90;99.90;;;;;;5072074;28;20212;-61
2021/07/15 06:13:28;;;;;;;4.30;2.17;;;19.90;99.90;;;;;;5071940;28;20668;-61
2021/07/15 06:15:56;;;;;;;4.30;1.25;;;19.80;99.90;;;;;;5071893;28;20221;-61
2021/07/15 06:18:23;;;;;;;0.85;0.47;;;19.90;99.90;;;;;;5071670;28;20251;-61
2021/07/15 06:20:49;;;;;;;2.75;0.80;;;19.90;99.90;;;;;;5071758;28;20212;-61
2021/07/15 06:23:16;;;;;;;1.67;0.50;;;19.90;99.90;;;;;;5072130;28;20205;-61
2021/07/15 06:25:43;;;;;;;1.85;0.65;;;19.90;99.90;;;;;;5071530;28;20619;-61
2021/07/15 06:28:09;;;;;;;1.00;0.68;;;19.90;99.90;;;;;;5071927;28;20211;-61
2021/07/15 06:30:36;;;;;;;1.95;0.60;;;19.80;99.90;;;;;;5071629;28;20255;-61
2021/07/15 06:33:04;;;;;;;2.08;0.40;;;19.80;99.90;;;;;;5071397;28;20208;-61
2021/07/15 06:35:32;;;;;;;1.45;0.28;;;19.80;99.90;;;;;;5071337;28;20275;-61
2021/07/15 06:37:58;;;;;;;1.67;0.22;;;19.90;99.90;;;;;;5070780;28;20727;-61
2021/07/15 06:40:25;;;;;;;0.88;0.30;;;20.10;99.90;;;;;;5070899;28;20346;-61
2021/07/15 06:42:52;;;;;;;1.02;0.40;;;20.40;99.90;;;;;;5070504;28;20205;-61
2021/07/15 06:45:19;;;;;;;6.80;4.82;;;20.90;99.90;;;;;;5070591;28;20282;-63
2021/07/15 06:47:46;;;;;;;3.92;2.10;;;21.50;99.90;;;;;;5070865;28;20770;-61
2021/07/15 06:50:15;;;;;;;3.30;0.60;;;22.10;99.90;;;;;;5071040;28;20204;-61
2021/07/15 06:52:43;;;;;;;1.38;0.50;;;22.70;99.90;;;;;;5070974;28;20299;-61
2021/07/15 06:55:10;;;;;;;2.55;0.40;;;23.10;99.90;;;;;;5071006;28;20212;-61
2021/07/15 06:57:37;;;;;;;1.50;1.13;;;23.40;99.90;;;;;;5071102;28;20761;-61
2021/07/15 07:00:07;;;;;;;2.40;0.50;;;23.60;99.90;;;;;;5070989;28;20213;-61
2021/07/15 07:02:37;;;;;;;2.75;0.32;;;23.90;99.90;;;;;;5070958;28;20258;-61
2021/07/15 07:05:04;;;;;;;2.20;0.55;;;23.80;99.90;;;;;;5070536;28;20215;-61
2021/07/15 07:07:32;;;;;;;0.85;0.30;;;23.70;99.90;;;;;;5070730;28;20229;-61
2021/07/15 07:09:59;;;;;;;1.92;0.50;;;23.60;99.90;;;;;;5071134;28;20208;-61
2021/07/15 07:12:26;;;;;;;1.27;0.45;;;23.50;99.90;;;;;;5070572;28;20213;-61
2021/07/15 07:14:52;;;;;;;4.43;0.47;;;23.40;99.90;;;;;;5070972;28;20235;-61
2021/07/15 07:17:19;;;;;;;2.53;0.40;;;23.30;99.90;;;;;;5070697;28;20231;-61
2021/07/15 07:19:46;;;;;;;0.40;0.35;;;23.40;99.90;;;;;;5070825;28;20204;-61
2021/07/15 07:22:12;;;;;;;0.93;0.45;;;23.80;99.90;;;;;;5070878;28;20270;-61
2021/07/15 07:24:40;;;;;;;1.98;0.55;;;24.30;99.90;;;;;;5070683;28;20620;-61
2021/07/15 07:27:07;;;;;;;1.77;0.68;;;24.40;99.90;;;;;;5070360;28;20236;-61
2021/07/15 07:29:34;;;;;;;1.60;0.70;;;24.40;99.90;;;;;;5070730;28;20648;-61
2021/07/15 07:32:00;;;;;;;2.47;0.35;;;24.50;99.90;;;;;;5070930;28;20271;-61
2021/07/15 07:34:27;;;;;;;0.98;0.30;;;24.50;99.90;;;;;;5071056;28;20239;-61
2021/07/15 07:36:54;;;;;;;1.98;0.57;;;24.40;99.90;;;;;;5070870;28;20232;-61
2021/07/15 07:39:21;;;;;;;1.02;0.10;;;24.30;99.90;;;;;;5070359;28;20201;-61
2021/07/15 07:41:49;;;;;;;1.63;0.50;;;24.10;99.90;;;;;;5070913;28;20209;-61
2021/07/15 07:44:16;;;;;;;1.30;0.40;;;24.10;99.90;;;;;;5071291;28;20205;-61
2021/07/15 07:46:43;;;;;;;15.95;11.98;;;24.00;99.90;;;;;;5070652;28;20328;-61
2021/07/15 07:49:09;;;;;;;4.75;1.23;;;23.90;99.90;;;;;;5070875;28;20238;-61
2021/07/15 07:51:36;;;;;;;1.40;0.80;;;23.90;99.90;;;;;;5070834;28;20738;-61
2021/07/15 07:54:04;;;;;;;1.63;0.32;;;23.90;99.90;;;;;;5073404;28;20611;-61
2021/07/15 07:56:32;;;;;;;1.98;0.20;;;23.80;99.90;;;;;;5074235;28;20311;-61
2021/07/15 07:59:00;;;;;;;2.08;0.20;;;23.90;99.90;;;;;;5074155;28;20207;-61
2021/07/15 08:01:27;;;;;;;1.65;0.30;;;23.90;99.90;;;;;;5075239;28;20233;-61
2021/07/15 08:03:54;;;;;;;2.03;0.50;;;23.80;99.90;;;;;;5074393;28;20408;-61
2021/07/15 08:06:21;;;;;;;1.20;0.30;;;23.80;99.90;;;;;;5074267;28;20628;-61
2021/07/15 08:08:48;;;;;;;1.92;0.57;;;23.80;99.90;;;;;;5074380;28;20209;-61
2021/07/15 08:11:15;;;;;;;0.95;0.20;;;23.70;99.90;;;;;;5074575;28;20209;-61
2021/07/15 08:13:42;;;;;;;1.52;0.50;;;23.60;99.90;;;;;;5074057;28;20205;-61
2021/07/15 08:16:10;;;;;;;0.57;0.50;;;23.60;99.90;;;;;;5074258;28;20221;-61
2021/07/15 08:18:37;;;;;;;0.90;0.25;;;23.80;99.90;;;;;;5073752;28;20209;-61
2021/07/15 08:21:03;;;;;;;2.17;1.20;;;24.00;99.90;;;;;;5073933;28;20205;-61
2021/07/15 08:23:30;;;;;;;1.08;0.68;;;24.30;99.90;;;;;;5073421;28;20750;-61
2021/07/15 08:25:57;;;;;;;2.08;0.40;;;24.50;99.90;;;;;;5073338;28;20770;-61
2021/07/15 08:28:23;;;;;;;5.07;0.68;;;24.80;99.90;;;;;;5073572;28;20646;-61
2021/07/15 08:30:50;;;;;;;1.23;0.52;;;24.90;99.90;;;;;;5073841;28;20650;-61
2021/07/15 08:33:18;;;;;;;1.10;0.38;;;25.10;99.90;;;;;;5074017;28;20253;-61
2021/07/15 08:35:45;;;;;;;0.70;0.30;;;25.30;99.90;;;;;;5073951;28;20229;-61
2021/07/15 08:38:11;;;;;;;0.93;0.40;;;25.50;99.90;;;;;;5075244;28;20216;-61
2021/07/15 08:40:38;;;;;;;1.58;0.32;;;25.60;99.90;;;;;;5076106;28;20693;-62
2021/07/15 08:43:07;;;;;;;0.80;0.40;;;25.80;99.90;;;;;;5077493;28;20236;-61
2021/07/15 08:45:36;;;;;;;1.45;0.25;;;25.90;99.90;;;;;;5074866;28;20277;-61
2021/07/15 08:48:04;;;;;;;0.43;0.35;;;25.90;99.90;;;;;;5074142;28;20204;-61
2021/07/15 08:50:32;;;;;;;0.88;0.30;;;25.90;99.90;;;;;;5076501;28;20208;-61
2021/07/15 08:53:00;;;;;;;0.80;0.30;;;25.70;99.90;;;;;;5074519;28;20677;-61
2021/07/15 08:58:13;;;;;;;0.70;0.38;;;25.30;99.90;;;;;;5075041;28;20254;-61
2021/07/15 09:00:40;;;;;;;1.95;0.93;;;25.10;99.90;;;;;;5072570;28;20205;-61
2021/07/15 09:03:08;;;;;;;1.13;0.75;;;25.00;99.90;;;;;;5072676;28;20239;-62
2021/07/15 09:05:36;;;;;;;1.30;0.52;;;24.90;99.90;;;;;;5073280;28;20247;-61
2021/07/15 09:08:04;;;;;;;3.10;0.93;;;24.70;99.90;;;;;;5072430;28;20722;-61
2021/07/15 09:10:31;;;;;;;2.17;1.92;;;24.60;99.90;;;;;;5072485;28;20680;-61
2021/07/15 09:12:58;;;;;;;2.00;0.65;;;24.50;99.90;;;;;;5072440;28;20210;-61
2021/07/15 09:15:26;;;;;;;0.95;0.50;;;24.50;99.90;;;;;;5072470;28;20644;-61
2021/07/15 09:17:53;;;;;;;2.67;0.30;;;24.50;99.90;;;;;;5072848;28;20239;-61
2021/07/15 09:20:21;;;;;;;1.15;0.50;;;24.20;99.90;;;;;;5072978;28;20262;-61
2021/07/15 09:23:03;;;;;;;3.60;0.60;;;24.20;99.90;;;;;;5072368;28;20209;-61
2021/07/15 09:25:54;;;;;;;0.35;0.28;;;24.20;99.90;;;;;;5071690;28;20212;-61
2021/07/15 09:28:29;;;;;;;0.20;0.20;;;24.20;99.90;;;;;;5071658;28;20201;-61
2021/07/15 09:30:56;;;;;;;0.80;0.40;;;24.20;99.90;;;;;;5071872;28;20266;-62
2021/07/15 09:33:26;;;;;;;0.93;0.30;;;24.30;99.90;;;;;;5072632;28;20238;-62
2021/07/15 09:35:52;;;;;;;0.55;0.20;;;24.50;99.90;;;;;;5072273;28;20227;-62
2021/07/15 09:38:22;;;;;;;1.40;0.40;;;24.80;99.90;;;;;;5072449;28;20201;-62
2021/07/15 09:40:51;;;;;;;2.47;0.40;;;25.30;99.90;;;;;;5072090;28;20212;-62
2021/07/15 09:43:20;;;;;;;1.48;0.20;;;25.70;99.90;;;;;;5072212;28;20206;-63
2021/07/15 09:45:48;;;;;;;2.28;0.30;;;26.20;99.90;;;;;;5071671;28;20731;-63
2021/07/15 09:48:17;;;;;;;0.75;0.28;;;26.70;99.90;;;;;;5071524;28;20201;-63
2021/07/15 09:50:43;;;;;;;0.70;0.60;;;26.90;99.90;;;;;;5071894;28;20648;-62
2021/07/15 09:53:23;;;;;;;0.82;0.38;;;26.60;99.90;;;;;;5072170;28;20346;-62
2021/07/15 09:55:59;;;;;;;3.10;0.50;;;26.50;99.90;;;;;;5071686;28;20640;-62
2021/07/15 09:58:26;;;;;;;0.50;0.40;;;26.80;99.90;;;;;;5071559;28;20307;-62
2021/07/15 10:01:03;;;;;;;0.28;0.15;;;27.00;99.90;;;;;;5071582;28;20266;-62
2021/07/15 10:03:34;;;;;;;0.60;0.47;;;27.00;99.90;;;;;;5071185;28;20204;-63
2021/07/15 10:06:02;;;;;;;2.88;0.57;;;27.30;99.90;;;;;;5071254;28;20311;-63
2021/07/15 10:08:32;;;;;;;0.47;0.10;;;27.80;99.90;;;;;;5071440;28;20630;-62
2021/07/15 10:11:15;;;;;;;1.15;0.20;;;27.70;99.90;;;;;;5071411;28;20204;-62
2021/07/15 10:13:42;;;;;;;0.85;0.25;;;27.90;99.90;;;;;;5071052;28;20205;-63
2021/07/15 10:16:09;;;;;;;0.32;0.20;;;28.30;99.00;;;;;;5070267;28;20228;-62
2021/07/15 10:18:39;;;;;;;0.70;0.30;;;28.20;99.10;;;;;;5071065;28;20826;-63
2021/07/15 10:21:07;;;;;;;0.60;0.40;;;27.90;99.30;;;;;;5071244;28;20212;-62
2021/07/15 10:23:37;;;;;;;3.80;1.95;;;28.00;99.10;;;;;;5071235;28;20204;-63
2021/07/15 10:26:05;;;;;;;0.20;0.20;;;28.50;98.20;;;;;;5070843;28;20239;-63
2021/07/15 10:28:32;;;;;;;2.97;0.30;;;28.80;96.70;;;;;;5071049;28;20201;-62
2021/07/15 10:31:00;;;;;;;0.82;0.80;;;28.70;96.90;;;;;;5071271;28;20673;-63
2021/07/15 10:33:29;;;;;;;1.35;0.47;;;28.80;96.50;;;;;;5071131;28;20236;-62
2021/07/15 10:35:57;;;;;;;0.47;0.22;;;29.10;96.20;;;;;;5072646;28;20263;-62
2021/07/15 10:38:24;;;;;;;0.55;0.15;;;29.40;95.20;;;;;;5072897;28;20278;-62
2021/07/15 10:40:52;;;;;;;0.30;0.10;;;29.50;94.30;;;;;;5071148;28;20205;-63
2021/07/15 10:43:19;;;;;;;0.75;0.20;;;29.40;94.60;;;;;;5071082;28;20209;-63
2021/07/15 10:45:47;;;;;;;1.75;0.40;;;29.50;94.20;;;;;;5070895;28;20240;-63
2021/07/15 10:48:15;;;;;;;0.65;0.30;;;29.10;94.50;;;;;;5070722;28;20750;-62
2021/07/15 10:50:42;;;;;;;2.42;1.08;;;28.10;95.70;;;;;;5071146;28;20303;-61
2021/07/15 10:53:10;;;;;;;1.40;0.82;;;27.20;97.20;;;;;;5070911;28;20621;-63
2021/07/15 10:55:38;;;;;;;0.68;0.32;;;27.10;98.00;;;;;;5070624;28;20224;-62
2021/07/15 10:58:06;;;;;;;0.45;0.20;;;27.20;98.00;;;;;;5070957;28;20205;-61
2021/07/15 11:00:32;;;;;;;0.80;0.50;;;27.50;97.40;;;;;;5070882;28;20212;-62
2021/07/15 11:03:12;;;;;;;1.30;0.25;;;27.90;97.10;;;;;;5071145;28;20201;-61
2021/07/15 11:05:48;;;;;;;0.60;0.28;;;28.30;96.10;;;;;;5070965;28;20224;-62
2021/07/15 11:08:16;;;;;;;0.80;0.70;;;28.50;95.40;;;;;;5070465;28;20220;-62
2021/07/15 11:10:43;;;;;;;0.40;0.20;;;28.90;94.80;;;;;;5070680;28;20239;-62
2021/07/15 11:13:11;;;;;;;0.30;0.20;;;29.60;93.40;;;;;;5070763;28;20220;-62
2021/07/15 11:15:52;;;;;;;0.40;0.20;;;29.80;92.60;;;;;;5070563;28;20220;-62
2021/07/15 11:18:54;;;;;;;0.95;0.30;;;29.90;92.90;;;;;;5070623;28;20205;-61
2021/07/15 11:21:32;;;;;;;1.65;0.30;;;29.90;92.80;;;;;;5070525;28;20230;-62
2021/07/15 11:24:31;;;;;;;0.52;0.20;;;30.00;92.40;;;;;;5070383;28;20623;-62
2021/07/15 11:26:58;;;;;;;0.55;0.30;;;30.00;91.90;;;;;;5059950;28;20711;-62
2021/07/15 11:29:51;;;;;;;2.08;0.30;;;30.10;91.70;;;;;;5073932;28;20688;-62
2021/07/15 11:32:28;;;;;;;1.10;0.68;;;30.40;91.10;;;;;;5074116;28;20593;-62
2021/07/15 11:34:55;;;;;;;1.55;1.00;;;30.60;90.40;;;;;;5073932;28;20209;-62
2021/07/15 11:37:39;;;;;;;2.67;0.90;;;30.60;90.20;;;;;;5074248;28;20640;-63
2021/07/15 11:40:27;;;;;;;0.38;0.28;;;30.30;90.50;;;;;;5074018;28;20208;-62
2021/07/15 11:42:55;;;;;;;0.25;0.22;;;30.10;90.50;;;;;;5073938;28;20563;-62
2021/07/15 11:45:22;;;;;;;1.55;0.30;;;29.60;91.00;;;;;;5073878;28;20208;-62
2021/07/15 11:47:51;;;;;;;1.85;0.15;;;29.20;91.10;;;;;;5074368;28;20240;-62
2021/07/15 11:50:31;;;;;;;0.70;0.30;;;28.60;92.50;;;;;;5074415;28;20487;-62
2021/07/15 11:53:16;;;;;;;0.30;0.30;;;28.10;93.40;;;;;;5074448;28;20201;-62
2021/07/15 11:55:44;;;;;;;0.85;0.35;;;27.90;94.20;;;;;;5074014;28;20236;-62
2021/07/15 11:58:46;;;;;;;2.20;0.80;;;27.70;94.10;;;;;;5073888;28;20209;-62
2021/07/15 12:01:17;;;;;;;2.95;0.25;;;27.20;95.10;;;;;;5073912;28;20265;-61
2021/07/15 12:03:57;;;;;;;1.05;0.40;;;26.30;96.50;;;;;;5073772;28;20216;-61
2021/07/15 12:06:24;;;;;;;1.77;0.50;;;25.40;98.90;;;;;;5073934;28;20263;-63
2021/07/15 12:08:51;;;;;;;2.72;2.20;;;24.80;99.90;;;;;;5073774;28;20254;-62
2021/07/15 12:11:20;;;;;;;3.53;0.73;;;24.60;99.90;;;;;;5073965;28;20259;-62
2021/07/15 12:13:51;;;;;;;2.55;0.88;;;24.40;99.90;;;;;;5073683;28;20522;-63
2021/07/15 12:16:19;;;;;;;6.55;3.30;;;24.50;99.90;;;;;;5073815;28;20229;-63
2021/07/15 12:18:47;;;;;;;3.33;0.88;;;24.50;99.90;;;;;;5073626;28;20235;-62
2021/07/15 12:21:14;;;;;;;1.35;0.88;;;24.50;99.90;;;;;;5073585;28;20207;-62
2021/07/15 12:23:41;;;;;;;0.63;0.45;;;24.50;99.90;;;;;;5073807;28;20587;-62
2021/07/15 12:26:12;;;;;;;1.90;1.20;;;24.60;99.90;;;;;;5074282;28;20228;-62
2021/07/15 12:28:44;;;;;;;1.65;0.80;;;24.70;99.90;;;;;;5073352;28;20224;-62
2021/07/15 12:31:13;;;;;;;1.98;0.68;;;24.80;99.90;;;;;;5073255;28;20211;-63
2021/07/15 12:33:43;;;;;;;7.75;3.13;;;25.00;99.90;;;;;;5073253;28;20217;-62
2021/07/15 12:36:12;;;;;;;0.77;0.52;;;25.30;99.90;;;;;;5073198;28;20294;-62
2021/07/15 12:38:40;;;;;;;2.30;0.85;;;25.70;99.90;;;;;;5072864;28;20207;-62
2021/07/15 12:41:09;;;;;;;1.15;0.60;;;26.10;99.90;;;;;;5072782;28;20580;-61
2021/07/15 12:43:41;;;;;;;0.45;0.45;;;26.60;99.90;;;;;;5072900;28;20209;-62
2021/07/15 12:46:09;;;;;;;1.05;0.60;;;27.20;99.90;;;;;;5072933;28;20231;-63
2021/07/15 12:48:44;;;;;;;0.88;0.55;;;27.70;98.30;;;;;;5072774;28;20316;-63
2021/07/15 12:51:12;;;;;;;0.95;0.63;;;27.90;97.60;;;;;;5071207;28;20535;-62
2021/07/15 12:53:42;;;;;;;0.70;0.60;;;27.80;97.70;;;;;;5071752;28;20729;-61
2021/07/15 12:56:10;;;;;;;0.50;0.40;;;27.40;97.30;;;;;;5072354;28;20221;-60
2021/07/15 12:58:37;;;;;;;0.80;0.50;;;26.90;97.90;;;;;;5072480;28;20205;-61